sensor_id;sensor_type;location;lat;lon;timestamp;P1;durP1;ratioP1;P2;durP2;ratioP2
18336;SDS011;9294;51.106;7.028;2023-03-14T00:01:55;1.33;;;1.10;;
18336;SDS011;9294;51.106;7.028;2023-03-14T00:04:22;1.00;;;1.00;;
18336;SDS011;9294;51.106;7.028;2023-03-14T00:06:49;1.27;;;1.17;;
18336;SDS011;9294;51.106;7.028;2023-03-14T00:09:15;1.00;;;1.00;;
18336;SDS011;9294;51.106;7.028;2023-03-14T00:11:42;0.75;;;0.75;;
18336;SDS011;9294;51.106;7.028;2023-03-14T00:14:09;0.90;;;0.90;;
18336;SDS011;9294;51.106;7.028;2023-03-14T00:16:38;1.08;;;1.08;;
18336;SDS011;9294;51.106;7.028;2023-03-14T00:19:04;1.05;;;1.05;;
18336;SDS011;9294;51.106;7.028;2023-03-14T00:21:31;1.00;;;1.00;;
18336;SDS011;9294;51.106;7.028;2023-03-14T00:23:58;1.23;;;1.17;;
18336;SDS011;9294;51.106;7.028;2023-03-14T00:26:25;1.23;;;1.23;;
18336;SDS011;9294;51.106;7.028;2023-03-14T00:28:52;1.23;;;1.15;;
18336;SDS011;9294;51.106;7.028;2023-03-14T00:31:19;1.05;;;1.05;;
18336;SDS011;9294;51.106;7.028;2023-03-14T00:33:47;1.55;;;1.30;;
18336;SDS011;9294;51.106;7.028;2023-03-14T00:36:15;0.98;;;0.95;;
18336;SDS011;9294;51.106;7.028;2023-03-14T00:38:43;1.15;;;1.15;;
18336;SDS011;9294;51.106;7.028;2023-03-14T00:41:12;1.17;;;1.10;;
18336;SDS011;9294;51.106;7.028;2023-03-14T00:43:40;1.38;;;1.27;;
18336;SDS011;9294;51.106;7.028;2023-03-14T00:46:08;1.00;;;1.00;;
18336;SDS011;9294;51.106;7.028;2023-03-14T00:48:35;1.10;;;1.00;;
18336;SDS011;9294;51.106;7.028;2023-03-14T00:51:04;0.98;;;0.98;;
18336;SDS011;9294;51.106;7.028;2023-03-14T00:53:34;0.70;;;0.70;;
18336;SDS011;9294;51.106;7.028;2023-03-14T00:56:03;1.23;;;1.23;;
18336;SDS011;9294;51.106;7.028;2023-03-14T00:58:30;1.15;;;1.15;;
18336;SDS011;9294;51.106;7.028;2023-03-14T01:00:57;1.17;;;1.17;;
18336;SDS011;9294;51.106;7.028;2023-03-14T01:03:24;1.15;;;1.05;;
18336;SDS011;9294;51.106;7.028;2023-03-14T01:05:50;0.93;;;0.93;;
18336;SDS011;9294;51.106;7.028;2023-03-14T01:08:18;0.90;;;0.90;;
18336;SDS011;9294;51.106;7.028;2023-03-14T01:10:45;0.90;;;0.90;;
18336;SDS011;9294;51.106;7.028;2023-03-14T01:13:13;1.02;;;1.02;;
18336;SDS011;9294;51.106;7.028;2023-03-14T01:15:39;0.98;;;0.98;;
18336;SDS011;9294;51.106;7.028;2023-03-14T01:18:06;1.17;;;1.10;;
18336;SDS011;9294;51.106;7.028;2023-03-14T01:20:33;1.30;;;1.25;;
18336;SDS011;9294;51.106;7.028;2023-03-14T01:22:59;0.68;;;0.68;;
18336;SDS011;9294;51.106;7.028;2023-03-14T01:25:27;0.80;;;0.77;;
18336;SDS011;9294;51.106;7.028;2023-03-14T01:27:55;0.95;;;0.95;;
18336;SDS011;9294;51.106;7.028;2023-03-14T01:30:21;1.52;;;1.20;;
18336;SDS011;9294;51.106;7.028;2023-03-14T01:32:48;1.20;;;1.20;;
18336;SDS011;9294;51.106;7.028;2023-03-14T01:35:15;0.90;;;0.90;;
18336;SDS011;9294;51.106;7.028;2023-03-14T01:37:42;0.90;;;0.90;;
18336;SDS011;9294;51.106;7.028;2023-03-14T01:40:10;1.00;;;1.00;;
18336;SDS011;9294;51.106;7.028;2023-03-14T01:42:45;1.00;;;1.00;;
18336;SDS011;9294;51.106;7.028;2023-03-14T01:48:38;0.90;;;0.90;;
18336;SDS011;9294;51.106;7.028;2023-03-14T01:51:09;1.02;;;0.90;;
18336;SDS011;9294;51.106;7.028;2023-03-14T01:53:39;1.20;;;1.15;;
18336;SDS011;9294;51.106;7.028;2023-03-14T01:56:08;0.90;;;0.90;;
18336;SDS011;9294;51.106;7.028;2023-03-14T01:58:39;1.40;;;1.30;;
18336;SDS011;9294;51.106;7.028;2023-03-14T02:01:11;0.98;;;0.98;;
18336;SDS011;9294;51.106;7.028;2023-03-14T02:03:41;0.90;;;0.90;;
18336;SDS011;9294;51.106;7.028;2023-03-14T02:06:13;0.80;;;0.80;;
18336;SDS011;9294;51.106;7.028;2023-03-14T02:08:43;1.23;;;1.23;;
18336;SDS011;9294;51.106;7.028;2023-03-14T02:11:13;1.00;;;1.00;;
18336;SDS011;9294;51.106;7.028;2023-03-14T02:13:41;1.05;;;1.05;;
18336;SDS011;9294;51.106;7.028;2023-03-14T02:16:09;1.77;;;1.27;;
18336;SDS011;9294;51.106;7.028;2023-03-14T02:18:35;0.95;;;0.95;;
18336;SDS011;9294;51.106;7.028;2023-03-14T02:21:04;1.00;;;1.00;;
18336;SDS011;9294;51.106;7.028;2023-03-14T02:23:38;1.02;;;1.02;;
18336;SDS011;9294;51.106;7.028;2023-03-14T02:26:10;1.13;;;1.00;;
18336;SDS011;9294;51.106;7.028;2023-03-14T02:28:42;1.13;;;1.13;;
18336;SDS011;9294;51.106;7.028;2023-03-14T02:31:09;1.10;;;0.90;;
18336;SDS011;9294;51.106;7.028;2023-03-14T02:33:37;1.00;;;1.00;;
18336;SDS011;9294;51.106;7.028;2023-03-14T02:36:05;0.90;;;0.90;;
18336;SDS011;9294;51.106;7.028;2023-03-14T02:38:35;1.30;;;1.00;;
18336;SDS011;9294;51.106;7.028;2023-03-14T02:41:07;1.25;;;1.13;;
18336;SDS011;9294;51.106;7.028;2023-03-14T02:43:34;0.90;;;0.90;;
18336;SDS011;9294;51.106;7.028;2023-03-14T02:46:02;1.75;;;0.98;;
18336;SDS011;9294;51.106;7.028;2023-03-14T02:48:32;1.13;;;1.00;;
18336;SDS011;9294;51.106;7.028;2023-03-14T02:51:01;0.88;;;0.88;;
18336;SDS011;9294;51.106;7.028;2023-03-14T02:53:29;0.90;;;0.90;;
18336;SDS011;9294;51.106;7.028;2023-03-14T02:55:58;0.65;;;0.65;;
18336;SDS011;9294;51.106;7.028;2023-03-14T02:58:25;1.55;;;1.00;;
18336;SDS011;9294;51.106;7.028;2023-03-14T03:00:52;0.90;;;0.90;;
18336;SDS011;9294;51.106;7.028;2023-03-14T03:03:20;1.08;;;1.02;;
18336;SDS011;9294;51.106;7.028;2023-03-14T03:05:48;0.82;;;0.82;;
18336;SDS011;9294;51.106;7.028;2023-03-14T03:08:16;1.10;;;1.10;;
18336;SDS011;9294;51.106;7.028;2023-03-14T03:10:43;0.73;;;0.73;;
18336;SDS011;9294;51.106;7.028;2023-03-14T03:13:10;2.05;;;1.00;;
18336;SDS011;9294;51.106;7.028;2023-03-14T03:15:37;0.73;;;0.73;;
18336;SDS011;9294;51.106;7.028;2023-03-14T03:18:04;1.27;;;1.10;;
18336;SDS011;9294;51.106;7.028;2023-03-14T03:23:00;0.88;;;0.88;;
18336;SDS011;9294;51.106;7.028;2023-03-14T03:25:27;1.02;;;1.00;;
18336;SDS011;9294;51.106;7.028;2023-03-14T03:27:54;1.50;;;1.10;;
18336;SDS011;9294;51.106;7.028;2023-03-14T03:30:21;1.00;;;0.90;;
18336;SDS011;9294;51.106;7.028;2023-03-14T03:32:47;1.38;;;0.90;;
18336;SDS011;9294;51.106;7.028;2023-03-14T03:35:14;0.98;;;0.98;;
18336;SDS011;9294;51.106;7.028;2023-03-14T03:37:42;1.08;;;1.00;;
18336;SDS011;9294;51.106;7.028;2023-03-14T03:40:10;0.88;;;0.88;;
18336;SDS011;9294;51.106;7.028;2023-03-14T03:42:36;1.10;;;1.10;;
18336;SDS011;9294;51.106;7.028;2023-03-14T03:45:03;0.95;;;0.82;;
18336;SDS011;9294;51.106;7.028;2023-03-14T03:47:31;0.88;;;0.88;;
18336;SDS011;9294;51.106;7.028;2023-03-14T03:49:58;1.35;;;1.20;;
18336;SDS011;9294;51.106;7.028;2023-03-14T03:52:24;1.08;;;1.08;;
18336;SDS011;9294;51.106;7.028;2023-03-14T03:54:52;1.13;;;0.98;;
18336;SDS011;9294;51.106;7.028;2023-03-14T03:57:19;1.00;;;1.00;;
18336;SDS011;9294;51.106;7.028;2023-03-14T03:59:46;1.00;;;1.00;;
18336;SDS011;9294;51.106;7.028;2023-03-14T04:02:13;0.95;;;0.82;;
18336;SDS011;9294;51.106;7.028;2023-03-14T04:04:39;0.90;;;0.90;;
18336;SDS011;9294;51.106;7.028;2023-03-14T04:07:06;1.33;;;1.00;;
18336;SDS011;9294;51.106;7.028;2023-03-14T04:09:34;1.17;;;0.82;;
18336;SDS011;9294;51.106;7.028;2023-03-14T04:12:02;1.17;;;1.08;;
18336;SDS011;9294;51.106;7.028;2023-03-14T04:14:29;0.90;;;0.80;;
18336;SDS011;9294;51.106;7.028;2023-03-14T04:16:55;0.90;;;0.90;;
18336;SDS011;9294;51.106;7.028;2023-03-14T04:19:22;1.15;;;1.05;;
18336;SDS011;9294;51.106;7.028;2023-03-14T04:21:49;0.73;;;0.73;;
18336;SDS011;9294;51.106;7.028;2023-03-14T04:24:15;1.15;;;1.15;;
18336;SDS011;9294;51.106;7.028;2023-03-14T04:26:42;0.70;;;0.70;;
18336;SDS011;9294;51.106;7.028;2023-03-14T04:29:10;0.82;;;0.82;;
18336;SDS011;9294;51.106;7.028;2023-03-14T04:31:37;0.93;;;0.93;;
18336;SDS011;9294;51.106;7.028;2023-03-14T04:34:03;0.82;;;0.82;;
18336;SDS011;9294;51.106;7.028;2023-03-14T04:36:30;1.00;;;0.93;;
18336;SDS011;9294;51.106;7.028;2023-03-14T04:38:57;0.98;;;0.90;;
18336;SDS011;9294;51.106;7.028;2023-03-14T04:41:23;1.67;;;1.23;;
18336;SDS011;9294;51.106;7.028;2023-03-14T04:43:50;0.85;;;0.85;;
18336;SDS011;9294;51.106;7.028;2023-03-14T04:46:18;1.10;;;0.90;;
18336;SDS011;9294;51.106;7.028;2023-03-14T04:48:45;0.80;;;0.80;;
18336;SDS011;9294;51.106;7.028;2023-03-14T04:51:11;0.90;;;0.90;;
18336;SDS011;9294;51.106;7.028;2023-03-14T04:53:38;0.90;;;0.80;;
18336;SDS011;9294;51.106;7.028;2023-03-14T04:56:06;0.70;;;0.70;;
18336;SDS011;9294;51.106;7.028;2023-03-14T04:58:33;0.85;;;0.85;;
18336;SDS011;9294;51.106;7.028;2023-03-14T05:01:03;0.65;;;0.65;;
18336;SDS011;9294;51.106;7.028;2023-03-14T05:03:32;0.95;;;0.95;;
18336;SDS011;9294;51.106;7.028;2023-03-14T05:06:01;0.80;;;0.80;;
18336;SDS011;9294;51.106;7.028;2023-03-14T05:08:27;0.70;;;0.70;;
18336;SDS011;9294;51.106;7.028;2023-03-14T05:10:54;0.82;;;0.82;;
18336;SDS011;9294;51.106;7.028;2023-03-14T05:13:22;0.60;;;0.60;;
18336;SDS011;9294;51.106;7.028;2023-03-14T05:15:49;0.77;;;0.77;;
18336;SDS011;9294;51.106;7.028;2023-03-14T05:18:16;0.70;;;0.70;;
18336;SDS011;9294;51.106;7.028;2023-03-14T05:20:44;0.73;;;0.73;;
18336;SDS011;9294;51.106;7.028;2023-03-14T05:23:11;0.73;;;0.73;;
18336;SDS011;9294;51.106;7.028;2023-03-14T05:25:39;0.80;;;0.80;;
18336;SDS011;9294;51.106;7.028;2023-03-14T05:28:06;0.80;;;0.80;;
18336;SDS011;9294;51.106;7.028;2023-03-14T05:30:32;0.57;;;0.57;;
18336;SDS011;9294;51.106;7.028;2023-03-14T05:32:59;0.80;;;0.80;;
18336;SDS011;9294;51.106;7.028;2023-03-14T05:35:26;0.70;;;0.70;;
18336;SDS011;9294;51.106;7.028;2023-03-14T05:37:54;0.60;;;0.60;;
18336;SDS011;9294;51.106;7.028;2023-03-14T05:40:20;0.70;;;0.70;;
18336;SDS011;9294;51.106;7.028;2023-03-14T05:42:47;1.00;;;1.00;;
18336;SDS011;9294;51.106;7.028;2023-03-14T05:45:14;0.77;;;0.77;;
18336;SDS011;9294;51.106;7.028;2023-03-14T05:47:40;0.70;;;0.70;;
18336;SDS011;9294;51.106;7.028;2023-03-14T05:50:07;1.02;;;0.82;;
18336;SDS011;9294;51.106;7.028;2023-03-14T05:52:35;0.60;;;0.60;;
18336;SDS011;9294;51.106;7.028;2023-03-14T05:55:04;0.68;;;0.68;;
18336;SDS011;9294;51.106;7.028;2023-03-14T05:57:31;0.77;;;0.77;;
18336;SDS011;9294;51.106;7.028;2023-03-14T05:59:58;0.60;;;0.60;;
18336;SDS011;9294;51.106;7.028;2023-03-14T06:02:24;0.88;;;0.88;;
18336;SDS011;9294;51.106;7.028;2023-03-14T06:04:51;0.63;;;0.63;;
18336;SDS011;9294;51.106;7.028;2023-03-14T06:07:18;1.02;;;1.02;;
18336;SDS011;9294;51.106;7.028;2023-03-14T06:09:45;0.68;;;0.68;;
18336;SDS011;9294;51.106;7.028;2023-03-14T06:12:13;0.73;;;0.73;;
18336;SDS011;9294;51.106;7.028;2023-03-14T06:14:39;0.52;;;0.52;;
18336;SDS011;9294;51.106;7.028;2023-03-14T06:17:06;0.68;;;0.68;;
18336;SDS011;9294;51.106;7.028;2023-03-14T06:19:33;0.60;;;0.60;;
18336;SDS011;9294;51.106;7.028;2023-03-14T06:21:59;0.75;;;0.75;;
18336;SDS011;9294;51.106;7.028;2023-03-14T06:24:26;0.75;;;0.75;;
18336;SDS011;9294;51.106;7.028;2023-03-14T06:26:53;3.13;;;1.52;;
18336;SDS011;9294;51.106;7.028;2023-03-14T06:29:21;1.08;;;0.70;;
18336;SDS011;9294;51.106;7.028;2023-03-14T06:31:47;1.60;;;0.70;;
18336;SDS011;9294;51.106;7.028;2023-03-14T06:34:14;1.95;;;0.77;;
18336;SDS011;9294;51.106;7.028;2023-03-14T06:36:41;0.68;;;0.68;;
18336;SDS011;9294;51.106;7.028;2023-03-14T06:39:07;1.10;;;1.00;;
18336;SDS011;9294;51.106;7.028;2023-03-14T06:41:34;1.25;;;0.90;;
18336;SDS011;9294;51.106;7.028;2023-03-14T06:44:01;0.63;;;0.60;;
18336;SDS011;9294;51.106;7.028;2023-03-14T06:46:29;3.78;;;0.77;;
18336;SDS011;9294;51.106;7.028;2023-03-14T06:48:56;1.88;;;0.65;;
18336;SDS011;9294;51.106;7.028;2023-03-14T06:51:22;0.85;;;0.65;;
18336;SDS011;9294;51.106;7.028;2023-03-14T06:53:49;0.80;;;0.80;;
18336;SDS011;9294;51.106;7.028;2023-03-14T06:56:16;2.08;;;1.10;;
18336;SDS011;9294;51.106;7.028;2023-03-14T06:58:42;0.77;;;0.77;;
18336;SDS011;9294;51.106;7.028;2023-03-14T07:01:14;0.90;;;0.73;;
18336;SDS011;9294;51.106;7.028;2023-03-14T07:03:48;1.35;;;0.95;;
18336;SDS011;9294;51.106;7.028;2023-03-14T07:06:15;1.35;;;0.75;;
18336;SDS011;9294;51.106;7.028;2023-03-14T07:08:42;1.08;;;0.75;;
18336;SDS011;9294;51.106;7.028;2023-03-14T07:11:08;1.10;;;1.00;;
18336;SDS011;9294;51.106;7.028;2023-03-14T07:13:36;0.60;;;0.60;;
18336;SDS011;9294;51.106;7.028;2023-03-14T07:16:03;1.20;;;1.10;;
18336;SDS011;9294;51.106;7.028;2023-03-14T07:18:30;0.60;;;0.60;;
18336;SDS011;9294;51.106;7.028;2023-03-14T07:20:58;1.58;;;1.00;;
18336;SDS011;9294;51.106;7.028;2023-03-14T07:23:25;4.32;;;1.02;;
18336;SDS011;9294;51.106;7.028;2023-03-14T07:25:52;0.80;;;0.80;;
18336;SDS011;9294;51.106;7.028;2023-03-14T07:28:19;1.25;;;0.77;;
18336;SDS011;9294;51.106;7.028;2023-03-14T07:30:46;1.58;;;0.80;;
18336;SDS011;9294;51.106;7.028;2023-03-14T07:33:13;1.05;;;0.75;;
18336;SDS011;9294;51.106;7.028;2023-03-14T07:35:40;2.20;;;0.70;;
18336;SDS011;9294;51.106;7.028;2023-03-14T07:38:08;0.93;;;0.85;;
18336;SDS011;9294;51.106;7.028;2023-03-14T07:40:35;0.60;;;0.60;;
18336;SDS011;9294;51.106;7.028;2023-03-14T07:43:01;0.77;;;0.77;;
18336;SDS011;9294;51.106;7.028;2023-03-14T07:45:28;0.68;;;0.68;;
18336;SDS011;9294;51.106;7.028;2023-03-14T07:47:55;0.75;;;0.60;;
18336;SDS011;9294;51.106;7.028;2023-03-14T07:50:22;0.70;;;0.70;;
18336;SDS011;9294;51.106;7.028;2023-03-14T07:52:49;0.60;;;0.60;;
18336;SDS011;9294;51.106;7.028;2023-03-14T07:55:18;0.82;;;0.82;;
18336;SDS011;9294;51.106;7.028;2023-03-14T07:57:44;2.10;;;1.00;;
18336;SDS011;9294;51.106;7.028;2023-03-14T08:00:11;0.60;;;0.60;;
18336;SDS011;9294;51.106;7.028;2023-03-14T08:02:39;0.57;;;0.57;;
18336;SDS011;9294;51.106;7.028;2023-03-14T08:05:06;1.20;;;0.90;;
18336;SDS011;9294;51.106;7.028;2023-03-14T08:07:33;5.43;;;0.90;;
18336;SDS011;9294;51.106;7.028;2023-03-14T08:10:00;7.82;;;0.88;;
18336;SDS011;9294;51.106;7.028;2023-03-14T08:12:28;5.65;;;0.75;;
18336;SDS011;9294;51.106;7.028;2023-03-14T08:14:54;0.47;;;0.47;;
18336;SDS011;9294;51.106;7.028;2023-03-14T08:17:21;1.27;;;0.60;;
18336;SDS011;9294;51.106;7.028;2023-03-14T08:19:48;0.95;;;0.68;;
18336;SDS011;9294;51.106;7.028;2023-03-14T08:22:14;0.52;;;0.52;;
18336;SDS011;9294;51.106;7.028;2023-03-14T08:24:41;0.40;;;0.40;;
18336;SDS011;9294;51.106;7.028;2023-03-14T08:27:08;0.50;;;0.50;;
18336;SDS011;9294;51.106;7.028;2023-03-14T08:29:36;2.40;;;0.63;;
18336;SDS011;9294;51.106;7.028;2023-03-14T08:32:02;0.75;;;0.75;;
18336;SDS011;9294;51.106;7.028;2023-03-14T08:34:29;1.70;;;0.82;;
18336;SDS011;9294;51.106;7.028;2023-03-14T08:36:56;0.60;;;0.60;;
18336;SDS011;9294;51.106;7.028;2023-03-14T08:39:23;0.60;;;0.60;;
18336;SDS011;9294;51.106;7.028;2023-03-14T08:41:49;1.88;;;1.05;;
18336;SDS011;9294;51.106;7.028;2023-03-14T08:44:16;2.20;;;0.50;;
18336;SDS011;9294;51.106;7.028;2023-03-14T08:46:44;1.67;;;0.90;;
18336;SDS011;9294;51.106;7.028;2023-03-14T08:49:11;3.20;;;0.73;;
18336;SDS011;9294;51.106;7.028;2023-03-14T08:51:39;2.05;;;0.90;;
18336;SDS011;9294;51.106;7.028;2023-03-14T08:54:06;2.50;;;0.60;;
18336;SDS011;9294;51.106;7.028;2023-03-14T08:56:35;1.40;;;0.50;;
18336;SDS011;9294;51.106;7.028;2023-03-14T08:59:03;0.50;;;0.50;;
18336;SDS011;9294;51.106;7.028;2023-03-14T09:01:29;0.65;;;0.60;;
18336;SDS011;9294;51.106;7.028;2023-03-14T09:03:57;0.45;;;0.40;;
18336;SDS011;9294;51.106;7.028;2023-03-14T09:06:24;3.13;;;0.63;;
18336;SDS011;9294;51.106;7.028;2023-03-14T09:08:51;3.65;;;0.35;;
18336;SDS011;9294;51.106;7.028;2023-03-14T09:11:17;2.63;;;1.00;;
18336;SDS011;9294;51.106;7.028;2023-03-14T09:13:44;5.57;;;1.15;;
18336;SDS011;9294;51.106;7.028;2023-03-14T09:16:11;0.93;;;0.63;;
18336;SDS011;9294;51.106;7.028;2023-03-14T09:18:38;2.47;;;1.00;;
18336;SDS011;9294;51.106;7.028;2023-03-14T09:21:06;3.28;;;1.20;;
18336;SDS011;9294;51.106;7.028;2023-03-14T09:23:33;2.65;;;0.95;;
18336;SDS011;9294;51.106;7.028;2023-03-14T09:26:00;1.00;;;0.82;;
18336;SDS011;9294;51.106;7.028;2023-03-14T09:28:27;3.78;;;1.15;;
18336;SDS011;9294;51.106;7.028;2023-03-14T09:30:55;3.58;;;1.23;;
18336;SDS011;9294;51.106;7.028;2023-03-14T09:33:22;3.45;;;1.20;;
18336;SDS011;9294;51.106;7.028;2023-03-14T09:35:48;3.45;;;0.95;;
18336;SDS011;9294;51.106;7.028;2023-03-14T09:38:19;3.72;;;1.10;;
18336;SDS011;9294;51.106;7.028;2023-03-14T09:40:46;2.15;;;1.10;;
18336;SDS011;9294;51.106;7.028;2023-03-14T09:43:14;2.92;;;1.00;;
18336;SDS011;9294;51.106;7.028;2023-03-14T09:45:41;2.28;;;1.00;;
18336;SDS011;9294;51.106;7.028;2023-03-14T09:48:14;3.20;;;0.93;;
18336;SDS011;9294;51.106;7.028;2023-03-14T09:50:44;1.45;;;0.55;;
18336;SDS011;9294;51.106;7.028;2023-03-14T09:53:14;3.63;;;1.15;;
18336;SDS011;9294;51.106;7.028;2023-03-14T09:55:45;0.60;;;0.60;;
18336;SDS011;9294;51.106;7.028;2023-03-14T09:58:19;1.30;;;0.70;;
18336;SDS011;9294;51.106;7.028;2023-03-14T10:00:49;2.15;;;1.10;;
18336;SDS011;9294;51.106;7.028;2023-03-14T10:03:22;1.25;;;0.77;;
18336;SDS011;9294;51.106;7.028;2023-03-14T10:05:51;1.08;;;0.70;;
18336;SDS011;9294;51.106;7.028;2023-03-14T10:08:20;1.23;;;1.13;;
18336;SDS011;9294;51.106;7.028;2023-03-14T10:10:47;3.72;;;0.90;;
18336;SDS011;9294;51.106;7.028;2023-03-14T10:13:14;2.83;;;1.00;;
18336;SDS011;9294;51.106;7.028;2023-03-14T10:15:46;4.40;;;3.00;;
18336;SDS011;9294;51.106;7.028;2023-03-14T10:18:14;7.88;;;4.70;;
18336;SDS011;9294;51.106;7.028;2023-03-14T10:20:42;5.60;;;3.53;;
18336;SDS011;9294;51.106;7.028;2023-03-14T10:23:23;10.07;;;4.32;;
18336;SDS011;9294;51.106;7.028;2023-03-14T10:26:04;5.30;;;3.40;;
18336;SDS011;9294;51.106;7.028;2023-03-14T10:28:33;13.70;;;4.88;;
18336;SDS011;9294;51.106;7.028;2023-03-14T10:31:03;11.77;;;4.13;;
18336;SDS011;9294;51.106;7.028;2023-03-14T10:33:31;7.82;;;3.83;;
18336;SDS011;9294;51.106;7.028;2023-03-14T10:36:00;7.30;;;3.75;;
18336;SDS011;9294;51.106;7.028;2023-03-14T10:38:31;6.70;;;2.92;;
18336;SDS011;9294;51.106;7.028;2023-03-14T10:41:00;6.07;;;3.40;;
18336;SDS011;9294;51.106;7.028;2023-03-14T10:43:27;6.95;;;2.97;;
18336;SDS011;9294;51.106;7.028;2023-03-14T10:45:58;6.18;;;3.28;;
18336;SDS011;9294;51.106;7.028;2023-03-14T10:48:31;8.45;;;2.88;;
18336;SDS011;9294;51.106;7.028;2023-03-14T10:51:02;7.13;;;3.38;;
18336;SDS011;9294;51.106;7.028;2023-03-14T10:53:34;5.45;;;3.03;;
18336;SDS011;9294;51.106;7.028;2023-03-14T10:56:06;6.78;;;3.47;;
18336;SDS011;9294;51.106;7.028;2023-03-14T10:58:35;6.38;;;3.70;;
18336;SDS011;9294;51.106;7.028;2023-03-14T11:01:09;4.80;;;3.75;;
18336;SDS011;9294;51.106;7.028;2023-03-14T11:03:45;5.07;;;3.75;;
18336;SDS011;9294;51.106;7.028;2023-03-14T11:06:18;5.10;;;2.88;;
18336;SDS011;9294;51.106;7.028;2023-03-14T11:08:51;4.05;;;2.92;;
18336;SDS011;9294;51.106;7.028;2023-03-14T11:11:24;6.63;;;2.97;;
18336;SDS011;9294;51.106;7.028;2023-03-14T11:13:56;4.18;;;2.50;;
18336;SDS011;9294;51.106;7.028;2023-03-14T11:16:33;4.30;;;2.70;;
18336;SDS011;9294;51.106;7.028;2023-03-14T11:19:10;3.80;;;2.80;;
18336;SDS011;9294;51.106;7.028;2023-03-14T11:21:45;2.88;;;2.55;;
18336;SDS011;9294;51.106;7.028;2023-03-14T11:24:21;3.10;;;2.20;;
18336;SDS011;9294;51.106;7.028;2023-03-14T11:26:56;3.78;;;2.63;;
18336;SDS011;9294;51.106;7.028;2023-03-14T11:29:28;4.18;;;2.40;;
18336;SDS011;9294;51.106;7.028;2023-03-14T11:32:02;3.72;;;2.20;;
18336;SDS011;9294;51.106;7.028;2023-03-14T11:34:39;2.70;;;2.25;;
18336;SDS011;9294;51.106;7.028;2023-03-14T11:37:12;1.77;;;1.67;;
18336;SDS011;9294;51.106;7.028;2023-03-14T11:39:44;11.57;;;2.65;;
18336;SDS011;9294;51.106;7.028;2023-03-14T11:42:16;3.00;;;2.10;;
18336;SDS011;9294;51.106;7.028;2023-03-14T11:44:45;2.75;;;2.30;;
18336;SDS011;9294;51.106;7.028;2023-03-14T11:47:15;1.92;;;1.70;;
18336;SDS011;9294;51.106;7.028;2023-03-14T11:49:47;3.08;;;1.90;;
18336;SDS011;9294;51.106;7.028;2023-03-14T11:52:20;2.83;;;1.80;;
18336;SDS011;9294;51.106;7.028;2023-03-14T11:54:52;2.65;;;1.85;;
18336;SDS011;9294;51.106;7.028;2023-03-14T11:57:22;1.92;;;1.83;;
18336;SDS011;9294;51.106;7.028;2023-03-14T11:59:50;4.25;;;2.20;;
18336;SDS011;9294;51.106;7.028;2023-03-14T12:02:22;3.10;;;2.10;;
18336;SDS011;9294;51.106;7.028;2023-03-14T12:04:56;1.75;;;1.50;;
18336;SDS011;9294;51.106;7.028;2023-03-14T12:07:52;1.88;;;1.52;;
18336;SDS011;9294;51.106;7.028;2023-03-14T12:10:48;1.75;;;1.65;;
18336;SDS011;9294;51.106;7.028;2023-03-14T12:13:17;1.50;;;1.40;;
18336;SDS011;9294;51.106;7.028;2023-03-14T12:15:46;5.32;;;1.83;;
18336;SDS011;9294;51.106;7.028;2023-03-14T12:18:19;1.92;;;1.73;;
18336;SDS011;9294;51.106;7.028;2023-03-14T12:20:50;2.67;;;1.75;;
18336;SDS011;9294;51.106;7.028;2023-03-14T12:23:19;1.85;;;1.67;;
18336;SDS011;9294;51.106;7.028;2023-03-14T12:25:47;4.20;;;2.28;;
18336;SDS011;9294;51.106;7.028;2023-03-14T12:28:43;3.38;;;1.90;;
18336;SDS011;9294;51.106;7.028;2023-03-14T12:36:59;9.90;;;1.95;;
18336;SDS011;9294;51.106;7.028;2023-03-14T12:39:34;16.50;;;2.40;;
18336;SDS011;9294;51.106;7.028;2023-03-14T12:42:10;17.00;;;2.67;;
18336;SDS011;9294;51.106;7.028;2023-03-14T12:44:38;8.20;;;1.60;;
18336;SDS011;9294;51.106;7.028;2023-03-14T12:50:13;7.88;;;2.10;;
18336;SDS011;9294;51.106;7.028;2023-03-14T12:52:46;7.35;;;1.90;;
18336;SDS011;9294;51.106;7.028;2023-03-14T12:55:28;4.70;;;1.67;;
18336;SDS011;9294;51.106;7.028;2023-03-14T12:58:02;2.90;;;1.45;;
18336;SDS011;9294;51.106;7.028;2023-03-14T13:00:34;8.10;;;1.83;;
18336;SDS011;9294;51.106;7.028;2023-03-14T13:03:12;8.18;;;1.55;;
18336;SDS011;9294;51.106;7.028;2023-03-14T13:05:51;3.65;;;1.63;;
18336;SDS011;9294;51.106;7.028;2023-03-14T13:08:32;4.15;;;1.20;;
18336;SDS011;9294;51.106;7.028;2023-03-14T13:11:01;3.22;;;1.67;;
18336;SDS011;9294;51.106;7.028;2023-03-14T13:13:32;3.75;;;1.33;;
18336;SDS011;9294;51.106;7.028;2023-03-14T13:16:01;5.68;;;2.03;;
18336;SDS011;9294;51.106;7.028;2023-03-14T13:18:30;5.93;;;1.67;;
18336;SDS011;9294;51.106;7.028;2023-03-14T13:21:02;10.18;;;2.78;;
18336;SDS011;9294;51.106;7.028;2023-03-14T13:23:32;8.55;;;1.38;;
18336;SDS011;9294;51.106;7.028;2023-03-14T13:26:00;9.40;;;1.60;;
18336;SDS011;9294;51.106;7.028;2023-03-14T13:28:29;9.68;;;2.22;;
18336;SDS011;9294;51.106;7.028;2023-03-14T13:30:58;5.68;;;1.55;;
18336;SDS011;9294;51.106;7.028;2023-03-14T13:33:27;3.38;;;1.20;;
18336;SDS011;9294;51.106;7.028;2023-03-14T13:35:55;4.20;;;1.38;;
18336;SDS011;9294;51.106;7.028;2023-03-14T13:38:23;2.78;;;1.10;;
18336;SDS011;9294;51.106;7.028;2023-03-14T13:40:53;1.65;;;1.20;;
18336;SDS011;9294;51.106;7.028;2023-03-14T13:43:25;2.88;;;1.50;;
18336;SDS011;9294;51.106;7.028;2023-03-14T13:45:56;4.97;;;1.30;;
18336;SDS011;9294;51.106;7.028;2023-03-14T13:48:29;3.30;;;1.75;;
18336;SDS011;9294;51.106;7.028;2023-03-14T13:50:58;3.20;;;1.33;;
18336;SDS011;9294;51.106;7.028;2023-03-14T13:53:27;1.77;;;1.45;;
18336;SDS011;9294;51.106;7.028;2023-03-14T13:55:54;2.75;;;1.30;;
18336;SDS011;9294;51.106;7.028;2023-03-14T13:58:25;6.30;;;1.80;;
18336;SDS011;9294;51.106;7.028;2023-03-14T14:00:57;2.97;;;1.65;;
18336;SDS011;9294;51.106;7.028;2023-03-14T14:03:28;1.70;;;1.25;;
18336;SDS011;9294;51.106;7.028;2023-03-14T14:05:57;1.58;;;1.48;;
18336;SDS011;9294;51.106;7.028;2023-03-14T14:08:24;3.00;;;1.13;;
18336;SDS011;9294;51.106;7.028;2023-03-14T14:10:53;1.70;;;1.50;;
18336;SDS011;9294;51.106;7.028;2023-03-14T14:13:25;2.17;;;1.30;;
18336;SDS011;9294;51.106;7.028;2023-03-14T14:15:54;2.08;;;1.42;;
18336;SDS011;9294;51.106;7.028;2023-03-14T14:18:22;1.35;;;1.25;;
18336;SDS011;9294;51.106;7.028;2023-03-14T14:20:52;1.80;;;1.05;;
18336;SDS011;9294;51.106;7.028;2023-03-14T14:23:20;4.40;;;1.35;;
18336;SDS011;9294;51.106;7.028;2023-03-14T14:25:51;3.00;;;1.60;;
18336;SDS011;9294;51.106;7.028;2023-03-14T14:28:21;2.50;;;1.33;;
18336;SDS011;9294;51.106;7.028;2023-03-14T14:31:02;2.30;;;1.23;;
18336;SDS011;9294;51.106;7.028;2023-03-14T14:33:38;3.50;;;1.17;;
18336;SDS011;9294;51.106;7.028;2023-03-14T14:36:13;2.28;;;1.00;;
18336;SDS011;9294;51.106;7.028;2023-03-14T14:38:48;2.63;;;1.38;;
18336;SDS011;9294;51.106;7.028;2023-03-14T14:41:16;2.60;;;1.48;;
18336;SDS011;9294;51.106;7.028;2023-03-14T14:43:43;2.17;;;1.40;;
18336;SDS011;9294;51.106;7.028;2023-03-14T14:46:09;2.35;;;1.52;;
18336;SDS011;9294;51.106;7.028;2023-03-14T14:48:43;11.52;;;2.45;;
18336;SDS011;9294;51.106;7.028;2023-03-14T14:51:10;3.72;;;1.75;;
18336;SDS011;9294;51.106;7.028;2023-03-14T14:53:39;2.05;;;1.48;;
18336;SDS011;9294;51.106;7.028;2023-03-14T14:56:13;3.90;;;1.70;;
18336;SDS011;9294;51.106;7.028;2023-03-14T14:58:43;2.22;;;1.75;;
18336;SDS011;9294;51.106;7.028;2023-03-14T15:01:11;1.88;;;1.60;;
18336;SDS011;9294;51.106;7.028;2023-03-14T15:03:42;2.22;;;1.55;;
18336;SDS011;9294;51.106;7.028;2023-03-14T15:06:10;3.08;;;1.63;;
18336;SDS011;9294;51.106;7.028;2023-03-14T15:08:40;3.53;;;1.85;;
18336;SDS011;9294;51.106;7.028;2023-03-14T15:11:08;5.03;;;1.77;;
18336;SDS011;9294;51.106;7.028;2023-03-14T15:13:42;4.35;;;1.77;;
18336;SDS011;9294;51.106;7.028;2023-03-14T15:16:09;3.65;;;1.88;;
18336;SDS011;9294;51.106;7.028;2023-03-14T15:18:37;2.80;;;1.50;;
18336;SDS011;9294;51.106;7.028;2023-03-14T15:21:04;2.13;;;1.73;;
18336;SDS011;9294;51.106;7.028;2023-03-14T15:23:31;3.83;;;1.70;;
18336;SDS011;9294;51.106;7.028;2023-03-14T15:25:59;4.78;;;1.83;;